Flight Track Log - Related Links

Times and Time Zones

All times are in EDT time to prevent confusion due to time zone crossing. See the SWA311 flight status page for this flight to view local times or setup timezone preferences in your user account.

Time Position Orientation Groundspeed Altitude Reporting Facility
EDT Latitude Longitude Course Direction KTS MPH feet Rate Location/Type
Sun 07:58:54 AM 41.9478 -72.7025 58° Northeast 153 176 1,000  Level Boston Center
Sun 08:00:00 AM 41.9708 -72.6522 58° Northeast 131 151 3,200 2,286 Climbing Boston Center
Sun 08:01:00 AM 41.9628 -72.5658 97° East 172 198 5,800 2,800 Climbing Boston Center
Sun 08:02:00 AM 41.8981 -72.5350 160° South 190 219 8,800 2,950 Climbing Boston Center
Sun 08:03:00 AM 41.8106 -72.4958 162° South 273 314 11,700 2,950 Climbing Boston Center
Sun 08:04:00 AM 41.7211 -72.4653 166° South 350 403 14,700 3,100 Climbing Boston Center
Sun 08:05:00 AM 41.6042 -72.4344 169° South 389 448 17,900 2,300 Climbing Boston Center
Sun 08:06:00 AM 41.5083 -72.4014 166° South 396 456 19,300 1,050 Climbing Boston Center
Sun 08:07:00 AM 41.3958 -72.3708 168° South 401 461 20,000 350 Climbing Boston Center
Sun 08:08:00 AM 41.2833 -72.3572 175° South 407 468 20,000 1,350 Level Boston Center
Sun 08:09:00 AM 41.1894 -72.4456 215° Southwest 385 443 22,700 2,500 Climbing Boston Center
Sun 08:10:00 AM 41.0894 -72.5447 217° Southwest 390 449 25,000 2,300 Climbing Boston Center
Sun 08:11:00 AM 40.9956 -72.6408 218° Southwest 410 472 27,300 2,150 Climbing Boston Center
Sun 08:12:00 AM 40.8994 -72.7450 219° Southwest 437 503 29,300 1,850 Climbing Boston Center
Sun 08:13:00 AM 40.8011 -72.8431 217° Southwest 447 514 31,000 1,850 Climbing Boston Center
Sun 08:14:00 AM 40.7114 -72.9247 215° Southwest 447 514 33,000 1,850 Climbing Boston Center
Sun 08:15:00 AM 40.6131 -73.0225 217° Southwest 447 514 34,700 1,600 Climbing Boston Center
Sun 08:16:00 AM 40.5164 -73.1225 218° Southwest 447 514 36,200 1,350 Climbing Boston Center
Sun 08:17:00 AM 40.4158 -73.2222 217° Southwest 447 514 37,400 1,253 Climbing Boston Center
Sun 08:18:38 AM 40.2536 -73.3897 218° Southwest 437 503 39,500 987 Climbing Washington Center
Sun 08:19:38 AM 40.1736 -73.4656 216° Southwest 437 503 40,000 256 Climbing Washington Center
Sun 08:20:35 AM 40.0672 -73.5664 216° Southwest 437 503 40,000  Level Washington Center
Sun 08:21:38 AM 39.9728 -73.6586 217° Southwest 437 503 40,000  Level Washington Center
Sun 08:22:38 AM 39.8744 -73.7531 216° Southwest 437 503 40,000  Level Washington Center
Sun 08:23:36 AM 39.7778 -73.8475 217° Southwest 437 503 40,000  Level Washington Center
Sun 08:24:37 AM 39.6833 -73.9414 217° Southwest 432 497 40,000  Level Washington Center
Sun 08:25:38 AM 39.5847 -74.0353 216° Southwest 432 497 40,000  Level Washington Center
Sun 08:26:36 AM 39.4878 -74.1289 217° Southwest 432 497 40,000  Level Washington Center
Sun 08:27:36 AM 39.3908 -74.2194 216° Southwest 432 497 40,000  Level Washington Center
Sun 08:28:37 AM 39.2942 -74.3150 217° Southwest 432 497 40,000  Level Washington Center
Sun 08:29:37 AM 39.1969 -74.4078 216° Southwest 437 503 40,000  Level Washington Center
Sun 08:30:37 AM 39.1000 -74.4978 216° Southwest 432 497 40,000  Level Washington Center
Sun 08:31:38 AM 39.0028 -74.5900 216° Southwest 432 497 40,000  Level Washington Center
Sun 08:32:36 AM 38.9078 -74.6819 217° Southwest 432 497 40,000  Level Washington Center
Sun 08:33:36 AM 38.8103 -74.7711 215° Southwest 432 497 40,000  Level Washington Center
Sun 08:34:37 AM 38.7131 -74.8628 216° Southwest 432 497 40,000  Level Washington Center
Sun 08:35:37 AM 38.6217 -74.9514 217° Southwest 427 491 40,000  Level Washington Center
Sun 08:36:38 AM 38.5264 -75.0369 215° Southwest 427 491 40,000  Level Washington Center
Sun 08:37:36 AM 38.4286 -75.1200 214° Southwest 432 497 40,000  Level Washington Center
Sun 08:38:38 AM 38.3353 -75.2158 219° Southwest 432 497 40,000  Level Washington Center
Sun 08:39:36 AM 38.2333 -75.3061 215° Southwest 432 497 40,000  Level Washington Center
Sun 08:40:37 AM 38.1375 -75.3964 217° Southwest 432 497 40,000  Level Washington Center
Sun 08:41:37 AM 38.0397 -75.4811 214° Southwest 432 497 40,000  Level Washington Center
Sun 08:42:35 AM 37.9311 -75.5444 205° Southwest 432 497 40,000  Level Washington Center
Sun 08:43:36 AM 37.8206 -75.6128 206° Southwest 437 503 40,000  Level Washington Center
Sun 08:44:37 AM 37.7100 -75.6758 204° Southwest 437 503 40,000  Level Washington Center
Sun 08:45:38 AM 37.5975 -75.7411 205° Southwest 442 509 40,000  Level Washington Center
Sun 08:46:36 AM 37.4847 -75.8092 206° Southwest 447 514 40,000  Level Washington Center
Sun 08:47:37 AM 37.3719 -75.8767 205° Southwest 447 514 40,000  Level Washington Center
Sun 08:48:36 AM 37.2592 -75.9417 205° Southwest 447 514 40,000  Level Washington Center
Sun 08:49:36 AM 37.1506 -76.0061 205° Southwest 447 514 40,000  Level Washington Center
Sun 08:50:37 AM 37.0417 -76.0706 205° Southwest 447 514 40,000  Level Washington Center
Sun 08:51:37 AM 36.9372 -76.1247 203° Southwest 448 516 40,000  Level Washington Center
Sun 08:52:38 AM 36.8264 -76.1886 205° Southwest 448 516 40,000  Level Washington Center
Sun 08:53:38 AM 36.7133 -76.2525 204° Southwest 443 510 40,000  Level Washington Center
Sun 08:54:36 AM 36.6044 -76.3217 207° Southwest 443 510 40,000  Level Washington Center
Sun 08:55:36 AM 36.4936 -76.3850 205° Southwest 443 510 40,000  Level Washington Center
Sun 08:56:36 AM 36.3803 -76.4486 204° Southwest 448 516 40,000  Level Washington Center
Sun 08:57:38 AM 36.2733 -76.5247 210° Southwest 448 516 40,000  Level Washington Center
Sun 08:58:35 AM 36.1686 -76.6006 210° Southwest 443 510 40,000  Level Washington Center
Sun 08:59:36 AM 36.0636 -76.6739 209° Southwest 443 510 40,000  Level Washington Center
Sun 09:00:36 AM 35.9606 -76.7494 211° Southwest 443 510 40,000  Level Washington Center
Sun 09:01:37 AM 35.8556 -76.8222 209° Southwest 443 510 40,000  Level Washington Center
Sun 09:02:38 AM 35.7444 -76.8792 203° Southwest 438 504 40,000  Level Washington Center
Sun 09:03:38 AM 35.6333 -76.9261 199° South 438 504 40,000  Level Washington Center
Sun 09:04:38 AM 35.5158 -76.9753 199° South 438 504 40,000  Level Washington Center
Sun 09:05:36 AM 35.4047 -77.0192 198° South 427 491 40,000  Level Washington Center
Sun 09:06:38 AM 35.2914 -77.0681 199° South 427 491 40,000  Level Washington Center
Sun 09:07:36 AM 35.1803 -77.1142 199° South 427 491 40,000  Level Washington Center
Sun 09:08:36 AM 35.0669 -77.1628 199° South 427 491 40,000  Level Washington Center
Sun 09:09:37 AM 34.9536 -77.2089 198° South 427 491 40,000  Level Washington Center
Sun 09:10:38 AM 34.8383 -77.2572 199° South 427 491 40,000  Level Washington Center
Sun 09:11:36 AM 34.7269 -77.3078 200° South 432 497 40,000  Level Washington Center
Sun 09:12:36 AM 34.6117 -77.3536 198° South 432 497 40,000  Level Washington Center
Sun 09:13:37 AM 34.4983 -77.4014 199° South 432 497 40,000  Level Washington Center
Sun 09:14:38 AM 34.3850 -77.4467 198° South 432 497 40,000  Level Washington Center
Sun 09:15:35 AM 34.2736 -77.4894 198° South 426 490 40,000  Level Washington Center
Sun 09:16:36 AM 34.1644 -77.5347 199° South 426 490 40,000  Level Washington Center
Sun 09:17:37 AM 34.0511 -77.5797 198° South 431 496 40,000  Level Washington Center
Sun 09:17:52 AM 34.0172 -77.5939 199° South 428 493 40,000  Level Jacksonville Center
Sun 09:18:52 AM 33.9086 -77.6381 199° South 416 479 40,000  Level Jacksonville Center
Sun 09:19:52 AM 33.7978 -77.6822 198° South 416 479 40,000  Level Jacksonville Center
Sun 09:20:52 AM 33.6908 -77.7233 198° South 416 479 40,000  Level Jacksonville Center
Sun 09:21:52 AM 33.5800 -77.7697 199° South 416 479 40,000  Level Jacksonville Center
Sun 09:22:52 AM 33.4714 -77.8133 199° South 416 479 40,000  Level Jacksonville Center
Sun 09:23:52 AM 33.3644 -77.8567 199° South 416 479 40,000  Level Jacksonville Center
Sun 09:24:52 AM 33.2578 -77.9000 199° South 416 479 40,000  Level Jacksonville Center
Sun 09:25:52 AM 33.1467 -77.9411 197° South 416 479 40,000  Level Jacksonville Center
Sun 09:26:52 AM 33.0378 -77.9842 198° South 421 484 40,000  Level Jacksonville Center
Sun 09:27:52 AM 32.9289 -78.0272 198° South 421 484 40,000  Level Jacksonville Center
Sun 09:28:52 AM 32.8178 -78.0703 198° South 421 484 40,000  Level Jacksonville Center
Sun 09:29:52 AM 32.7089 -78.1131 198° South 421 484 40,000  Level Jacksonville Center
Sun 09:30:52 AM 32.5997 -78.1558 198° South 421 484 40,000  Level Jacksonville Center
Sun 09:31:52 AM 32.4889 -78.2036 200° South 421 484 40,000  Level Jacksonville Center
Sun 09:32:52 AM 32.3775 -78.2411 196° South 421 484 40,000  Level Jacksonville Center
Sun 09:33:52 AM 32.2625 -78.2939 201° Southwest 428 493 40,000  Level Jacksonville Center
Sun 09:34:52 AM 32.1472 -78.3389 198° South 428 493 40,000  Level Jacksonville Center
Sun 09:35:52 AM 32.0361 -78.3811 198° South 428 493 40,000  Level Jacksonville Center
Sun 09:36:52 AM 31.9208 -78.4258 198° South 433 498 40,000  Level Jacksonville Center
Sun 09:37:52 AM 31.8075 -78.4706 199° South 433 498 40,000  Level Jacksonville Center
Sun 09:38:52 AM 31.7003 -78.5097 197° South 433 498 40,000  Level Jacksonville Center
Sun 09:39:52 AM 31.5872 -78.5542 199° South 428 493 40,000  Level Jacksonville Center
Sun 09:40:52 AM 31.4656 -78.6061 200° South 441 507 40,000  Level Jacksonville Center
Sun 09:41:52 AM 31.3503 -78.6478 197° South 441 507 40,000  Level Jacksonville Center
Sun 09:42:52 AM 31.2347 -78.6894 197° South 441 507 40,000  Level Jacksonville Center
Sun 09:43:52 AM 31.1214 -78.7333 198° South 435 501 40,000  Level Jacksonville Center
Sun 09:44:52 AM 30.9997 -78.7775 197° South 440 506 40,000  Level Jacksonville Center
Sun 09:47:15 AM 30.7267 -78.8817 198° South 435 501 40,000  Level Miami Center
Sun 09:48:15 AM 30.6114 -78.9253 198° South 443 510 40,000  Level Miami Center
Sun 09:49:15 AM 30.4919 -78.9686 197° South 443 510 40,000  Level Miami Center
Sun 09:50:15 AM 30.3706 -79.0072 195° South 450 518 40,000  Level Miami Center
Sun 09:51:15 AM 30.2511 -79.0383 193° South 450 518 40,000  Level Miami Center
Sun 09:52:15 AM 30.1278 -79.0719 193° South 457 526 40,000  Level Miami Center
Sun 09:53:15 AM 29.9956 -79.1147 196° South 457 526 40,000  Level Miami Center
Sun 09:54:15 AM 29.8761 -79.1506 195° South 449 517 40,000  Level Miami Center
Sun 09:55:15 AM 29.7569 -79.1789 192° South 444 511 40,000  Level Miami Center
Sun 09:56:15 AM 29.6375 -79.2097 193° South 438 504 40,000  Level Miami Center
Sun 09:57:15 AM 29.5142 -79.2333 189° South 438 504 40,000  Level Miami Center
Sun 09:58:15 AM 29.3989 -79.2667 194° South 442 509 40,000  Level Miami Center
Sun 09:59:15 AM 29.2775 -79.2947 191° South 442 509 40,000  Level Miami Center
Sun 10:00:15 AM 29.1581 -79.3278 194° South 436 502 40,000  Level Miami Center
Sun 10:01:15 AM 29.0364 -79.3561 192° South 436 502 40,000  Level Miami Center
Sun 10:02:15 AM 28.9150 -79.3842 191° South 441 507 40,000  Level Miami Center
Sun 10:03:15 AM 28.7956 -79.4144 193° South 441 507 40,000  Level Miami Center
Sun 10:04:15 AM 28.6781 -79.4450 193° South 441 507 40,000  Level Miami Center
Sun 10:05:15 AM 28.5586 -79.4753 193° South 441 507 40,000  Level Miami Center
Sun 10:06:15 AM 28.4411 -79.5033 192° South 435 501 40,000  Level Miami Center
Sun 10:07:15 AM 28.3469 -79.5269 192° South 435 501 40,000  Level Miami Center
Sun 10:08:15 AM 28.2189 -79.5569 192° South 435 501 40,000  Level Miami Center
Sun 10:09:15 AM 28.0994 -79.5847 192° South 435 501 40,000 -850 Level Miami Center
Sun 10:10:15 AM 27.9819 -79.6147 193° South 435 501 38,300 -2,050 Descending Miami Center
Sun 10:11:15 AM 27.8625 -79.6400 191° South 435 501 35,900 -3,050 Descending Miami Center
Sun 10:12:15 AM 27.7281 -79.6744 193° South 430 495 32,200 -3,050 Descending Miami Center
Sun 10:13:15 AM 27.6064 -79.7042 192° South 447 514 29,800 -2,050 Descending Miami Center
Sun 10:14:15 AM 27.4833 -79.7058 181° South 447 514 28,100 -1,950 Descending Miami Center
Sun 10:15:15 AM 27.3811 -79.6939 174° South 434 499 25,900 -2,150 Descending Miami Center
Sun 10:16:15 AM 27.2686 -79.6819 175° South 417 480 23,800 -2,200 Descending Miami Center
Sun 10:17:15 AM 27.1519 -79.6697 175° South 393 452 21,500 -2,069 Descending Miami Center
Sun 10:18:11 AM 27.0603 -79.6628 176° South 370 426 19,800 -1,850 Descending Miami Center
Sun 10:19:15 AM 26.9456 -79.6483 174° South 382 440 17,800 -2,000 Descending Miami Center
Sun 10:19:38 AM 26.9017 -79.6472 179° South 368 423 16,900 -2,100 Descending Miami Center
Sun 10:20:15 AM 26.8558 -79.6417 174° South 361 415 15,700 -2,182 Descending Miami Center
Sun 10:20:33 AM 26.8139 -79.6569 198° South 351 404 14,900 -2,000 Descending Miami Center
Sun 10:21:15 AM 26.7633 -79.6789 201° Southwest 351 404 13,700 -1,967 Descending Miami Center
Sun 10:21:34 AM 26.7233 -79.6989 204° Southwest 339 390 12,900 -2,200 Descending Miami Center
Sun 10:22:15 AM 26.6683 -79.7253 203° Southwest 346 398 11,500 -1,545 Descending Miami Center
Sun 10:23:15 AM 26.5947 -79.7583 202° Southwest 333 383 10,300 -1,034 Descending Miami Center
Sun 10:23:42 AM 26.5503 -79.7806 204° Southwest 284 327 10,000 -1,000 Descending Miami Center
Sun 10:24:15 AM 26.5125 -79.7958 200° South 298 343 9,300 -1,393 Descending Miami Center
Sun 10:24:38 AM 26.4831 -79.8114 205° Southwest 275 316 8,700 -1,200 Descending Miami Center
Sun 10:25:15 AM 26.4514 -79.8269 204° Southwest 275 316 8,100 -590 Descending Miami Center
Sun 10:25:39 AM 26.4133 -79.8469 205° Southwest 276 318 8,100  Level Miami Center
Sun 10:26:15 AM 26.3731 -79.8689 206° Southwest 282 325 8,100 -290 Level Miami Center
Sun 10:26:41 AM 26.3456 -79.8939 219° Southwest 289 333 7,800 -800 Descending Miami Center
Sun 10:27:15 AM 26.3136 -79.9231 219° Southwest 287 330 7,300 -984 Descending Miami Center
Sun 10:27:42 AM 26.2836 -79.9500 219° Southwest 288 331 6,800 -818 Descending Miami Center
Sun 10:28:43 AM 26.2261 -80.0111 224° Southwest 282 325 6,100 -393 Descending Miami Center
Sun 10:29:44 AM 26.1722 -80.0769 228° Southwest 274 315 6,000  Descending Miami Center
Sun 10:30:40 AM 26.1519 -80.1433 251° West 238 274 6,100 -49 Climbing Miami Center
Sun 10:31:47 AM 26.1503 -80.2244 269° West 237 273 5,900 -465 Descending Miami Center
Sun 10:32:49 AM 26.1506 -80.3008 270° West 238 274 5,100 -466 Descending Miami Center
Sun 10:33:43 AM 26.1489 -80.3656 268° West 230 265 5,000 -344 Descending Miami Center
Sun 10:34:51 AM 26.1086 -80.3944 213° Southwest 174 200 4,400 -837 Descending Miami Center
Sun 10:35:52 AM 26.0739 -80.3586 137° Southeast 184 212 3,200 -934 Descending Miami Center
Sun 10:36:53 AM 26.0753 -80.3031 88° East 171 197 2,500 -829 Descending Miami Center
Sun 10:37:55 AM 26.0744 -80.2500 91° East 166 191 1,500 -885 Descending Miami Center
Sun 10:38:55 AM 26.0753 -80.2083 89° East 127 146 700 -800 Descending Miami Center
Sun 10:40:00 AM 26.0667 -80.1500 103° East  Level FlightAware Approximate
Sun 10:47:00 AM 26.0726 -80.1527 103° East  Level Estimated

Login

Don't have an account? Register now (free) for customized features, flight alerts, and more!